sensor_id;sensor_type;location;lat;lon;timestamp;pressure;altitude;pressure_sealevel;temperature;humidity
70921;BME280;58572;48.110;19.838;2023-03-04T00:01:34;97800.69;;;2.35;69.92
70921;BME280;58572;48.110;19.838;2023-03-04T00:04:01;97663.06;;;1.52;71.28
70921;BME280;58572;48.110;19.838;2023-03-04T00:06:28;97779.44;;;2.21;70.69
70921;BME280;58572;48.110;19.838;2023-03-04T00:08:55;97777.00;;;2.20;71.34
70921;BME280;58572;48.110;19.838;2023-03-04T00:11:23;97777.81;;;2.09;71.35
70921;BME280;58572;48.110;19.838;2023-03-04T00:13:50;97770.75;;;1.96;72.01
70921;BME280;58572;48.110;19.838;2023-03-04T00:16:17;97776.47;;;2.00;71.71
70921;BME280;58572;48.110;19.838;2023-03-04T00:18:45;97686.16;;;1.77;70.46
70921;BME280;58572;48.110;19.838;2023-03-04T00:21:12;97774.91;;;2.22;70.59
70921;BME280;58572;48.110;19.838;2023-03-04T00:23:39;97779.09;;;2.30;70.85
70921;BME280;58572;48.110;19.838;2023-03-04T00:26:08;97768.94;;;2.08;71.13
70921;BME280;58572;48.110;19.838;2023-03-04T00:28:35;97761.34;;;2.64;67.71
70921;BME280;58572;48.110;19.838;2023-03-04T00:31:03;97765.94;;;3.03;66.08
70921;BME280;58572;48.110;19.838;2023-03-04T00:33:30;97763.34;;;3.08;65.15
70921;BME280;58572;48.110;19.838;2023-03-04T00:35:58;97760.78;;;3.13;65.38
70921;BME280;58572;48.110;19.838;2023-03-04T00:38:25;97753.75;;;3.69;62.67
70921;BME280;58572;48.110;19.838;2023-03-04T00:40:53;97690.34;;;3.40;62.62
70921;BME280;58572;48.110;19.838;2023-03-04T00:43:20;97756.28;;;3.59;63.12
70921;BME280;58572;48.110;19.838;2023-03-04T00:45:47;97643.19;;;2.47;64.30
70921;BME280;58572;48.110;19.838;2023-03-04T00:48:14;97760.88;;;2.67;65.88
70921;BME280;58572;48.110;19.838;2023-03-04T00:50:42;97745.50;;;2.27;68.11
70921;BME280;58572;48.110;19.838;2023-03-04T00:53:10;97742.25;;;2.25;69.49
70921;BME280;58572;48.110;19.838;2023-03-04T00:55:37;97742.81;;;2.39;68.30
70921;BME280;58572;48.110;19.838;2023-03-04T00:58:04;97601.72;;;2.38;64.89
70921;BME280;58572;48.110;19.838;2023-03-04T01:00:31;97751.44;;;2.52;67.00
70921;BME280;58572;48.110;19.838;2023-03-04T01:02:58;97681.16;;;0.97;71.48
70921;BME280;58572;48.110;19.838;2023-03-04T01:05:26;97648.06;;;2.10;65.81
70921;BME280;58572;48.110;19.838;2023-03-04T01:07:52;97746.66;;;2.08;68.34
70921;BME280;58572;48.110;19.838;2023-03-04T01:10:21;97746.31;;;1.51;71.06
70921;BME280;58572;48.110;19.838;2023-03-04T01:12:48;97691.13;;;1.08;71.75
70921;BME280;58572;48.110;19.838;2023-03-04T01:15:15;97735.34;;;1.41;71.83
70921;BME280;58572;48.110;19.838;2023-03-04T01:17:42;97731.78;;;1.58;71.03
70921;BME280;58572;48.110;19.838;2023-03-04T01:20:11;97723.75;;;1.58;71.88
70921;BME280;58572;48.110;19.838;2023-03-04T01:22:38;97726.69;;;1.80;70.46
70921;BME280;58572;48.110;19.838;2023-03-04T01:25:06;97645.91;;;2.35;65.45
70921;BME280;58572;48.110;19.838;2023-03-04T01:27:34;97611.56;;;1.50;69.14
70921;BME280;58572;48.110;19.838;2023-03-04T01:30:01;97586.41;;;0.86;70.27
70921;BME280;58572;48.110;19.838;2023-03-04T01:32:28;97707.44;;;1.60;70.85
70921;BME280;58572;48.110;19.838;2023-03-04T01:34:55;97709.84;;;1.38;71.65
70921;BME280;58572;48.110;19.838;2023-03-04T01:37:22;97677.75;;;1.08;72.29
70921;BME280;58572;48.110;19.838;2023-03-04T01:39:49;97700.28;;;1.31;72.51
70921;BME280;58572;48.110;19.838;2023-03-04T01:42:19;97697.41;;;1.44;71.78
70921;BME280;58572;48.110;19.838;2023-03-04T01:44:49;97678.22;;;1.58;70.96
70921;BME280;58572;48.110;19.838;2023-03-04T01:47:17;97686.59;;;1.62;70.28
70921;BME280;58572;48.110;19.838;2023-03-04T01:49:44;97690.34;;;1.84;68.98
70921;BME280;58572;48.110;19.838;2023-03-04T01:52:12;97684.63;;;1.69;69.87
70921;BME280;58572;48.110;19.838;2023-03-04T01:54:39;97674.03;;;2.73;64.92
70921;BME280;58572;48.110;19.838;2023-03-04T01:57:14;97676.06;;;2.94;64.34
70921;BME280;58572;48.110;19.838;2023-03-04T01:59:42;97677.16;;;2.41;65.71
70921;BME280;58572;48.110;19.838;2023-03-04T02:02:11;97571.53;;;0.90;69.84
70921;BME280;58572;48.110;19.838;2023-03-04T02:04:39;97671.44;;;1.56;69.88
70921;BME280;58572;48.110;19.838;2023-03-04T02:07:07;97624.00;;;1.21;69.38
70921;BME280;58572;48.110;19.838;2023-03-04T02:09:35;97666.69;;;2.16;67.12
70921;BME280;58572;48.110;19.838;2023-03-04T02:12:02;97666.75;;;2.56;65.12
70921;BME280;58572;48.110;19.838;2023-03-04T02:14:30;97636.31;;;2.79;63.75
70921;BME280;58572;48.110;19.838;2023-03-04T02:16:57;97645.97;;;2.12;65.90
70921;BME280;58572;48.110;19.838;2023-03-04T02:19:40;97605.22;;;2.38;64.19
70921;BME280;58572;48.110;19.838;2023-03-04T02:22:08;97619.91;;;2.36;64.83
70921;BME280;58572;48.110;19.838;2023-03-04T02:24:38;97543.97;;;0.48;68.81
70921;BME280;58572;48.110;19.838;2023-03-04T02:27:08;97667.75;;;1.15;70.24
70921;BME280;58572;48.110;19.838;2023-03-04T02:29:35;97660.72;;;1.44;69.57
70921;BME280;58572;48.110;19.838;2023-03-04T02:32:03;97520.44;;;1.85;64.47
70921;BME280;58572;48.110;19.838;2023-03-04T02:34:33;97625.91;;;3.11;62.72
70921;BME280;58572;48.110;19.838;2023-03-04T02:37:01;97633.78;;;3.01;61.89
70921;BME280;58572;48.110;19.838;2023-03-04T02:39:30;97633.59;;;2.91;62.23
70921;BME280;58572;48.110;19.838;2023-03-04T02:41:58;97631.97;;;2.90;62.26
70921;BME280;58572;48.110;19.838;2023-03-04T02:44:28;97639.13;;;2.44;64.13
70921;BME280;58572;48.110;19.838;2023-03-04T02:46:57;97630.13;;;2.50;63.56
70921;BME280;58572;48.110;19.838;2023-03-04T02:49:26;97626.50;;;2.56;63.56
70921;BME280;58572;48.110;19.838;2023-03-04T02:51:58;97502.56;;;2.03;62.11
70921;BME280;58572;48.110;19.838;2023-03-04T02:54:27;97625.97;;;2.71;62.38
70921;BME280;58572;48.110;19.838;2023-03-04T02:56:55;97633.34;;;2.01;64.56
70921;BME280;58572;48.110;19.838;2023-03-04T02:59:23;97600.25;;;2.18;64.30
70921;BME280;58572;48.110;19.838;2023-03-04T03:01:51;97631.34;;;1.26;67.56
70921;BME280;58572;48.110;19.838;2023-03-04T03:04:19;97633.47;;;2.06;65.70
70921;BME280;58572;48.110;19.838;2023-03-04T03:06:47;97620.41;;;2.61;62.55
70921;BME280;58572;48.110;19.838;2023-03-04T03:09:14;97620.97;;;2.92;61.82
70921;BME280;58572;48.110;19.838;2023-03-04T03:11:41;97619.59;;;2.61;62.36
70921;BME280;58572;48.110;19.838;2023-03-04T03:14:09;97605.88;;;2.45;62.64
70921;BME280;58572;48.110;19.838;2023-03-04T03:16:36;97607.75;;;2.45;63.46
70921;BME280;58572;48.110;19.838;2023-03-04T03:19:04;97607.63;;;2.80;62.06
70921;BME280;58572;48.110;19.838;2023-03-04T03:21:31;97612.03;;;2.58;62.85
70921;BME280;58572;48.110;19.838;2023-03-04T03:23:58;97508.50;;;2.16;61.05
70921;BME280;58572;48.110;19.838;2023-03-04T03:26:26;97607.00;;;2.61;61.56
70921;BME280;58572;48.110;19.838;2023-03-04T03:28:53;97579.63;;;2.47;61.67
70921;BME280;58572;48.110;19.838;2023-03-04T03:31:20;97605.16;;;1.51;65.84
70921;BME280;58572;48.110;19.838;2023-03-04T03:33:47;97601.50;;;2.28;63.31
70921;BME280;58572;48.110;19.838;2023-03-04T03:36:15;97594.16;;;2.23;63.44
70921;BME280;58572;48.110;19.838;2023-03-04T03:38:42;97284.03;;;0.46;62.37
70921;BME280;58572;48.110;19.838;2023-03-04T03:41:09;97359.19;;;1.20;61.06
70921;BME280;58572;48.110;19.838;2023-03-04T03:43:36;97600.28;;;2.47;62.08
70921;BME280;58572;48.110;19.838;2023-03-04T03:46:04;97605.78;;;2.40;62.03
70921;BME280;58572;48.110;19.838;2023-03-04T03:48:31;97599.16;;;2.31;62.72
70921;BME280;58572;48.110;19.838;2023-03-04T03:50:58;97593.44;;;2.39;61.74
70921;BME280;58572;48.110;19.838;2023-03-04T03:53:26;97605.41;;;2.77;61.22
70921;BME280;58572;48.110;19.838;2023-03-04T03:55:53;97599.16;;;2.31;62.04
70921;BME280;58572;48.110;19.838;2023-03-04T03:58:20;97607.00;;;2.21;62.40
70921;BME280;58572;48.110;19.838;2023-03-04T04:00:47;97601.03;;;2.31;62.31
70921;BME280;58572;48.110;19.838;2023-03-04T04:03:15;97598.59;;;2.06;63.57
70921;BME280;58572;48.110;19.838;2023-03-04T04:05:42;97608.84;;;2.32;61.78
70921;BME280;58572;48.110;19.838;2023-03-04T04:08:11;97520.91;;;1.94;60.74
70921;BME280;58572;48.110;19.838;2023-03-04T04:10:40;97579.84;;;2.06;62.05
70921;BME280;58572;48.110;19.838;2023-03-04T04:13:08;97599.94;;;2.43;61.39
70921;BME280;58572;48.110;19.838;2023-03-04T04:15:35;97605.25;;;2.27;61.97
70921;BME280;58572;48.110;19.838;2023-03-04T04:18:03;97612.31;;;1.04;65.92
70921;BME280;58572;48.110;19.838;2023-03-04T04:20:30;97576.00;;;0.37;68.84
70921;BME280;58572;48.110;19.838;2023-03-04T04:22:57;97502.38;;;-0.26;69.86
70921;BME280;58572;48.110;19.838;2023-03-04T04:25:24;97595.97;;;1.59;65.26
70921;BME280;58572;48.110;19.838;2023-03-04T04:27:52;97592.56;;;1.99;62.87
70921;BME280;58572;48.110;19.838;2023-03-04T04:30:19;97587.78;;;2.12;61.89
70921;BME280;58572;48.110;19.838;2023-03-04T04:32:46;97591.38;;;2.06;62.14
70921;BME280;58572;48.110;19.838;2023-03-04T04:35:13;97478.38;;;1.22;61.78
70921;BME280;58572;48.110;19.838;2023-03-04T04:37:40;97514.44;;;1.55;61.74
70921;BME280;58572;48.110;19.838;2023-03-04T04:40:08;97592.25;;;1.60;63.63
70921;BME280;58572;48.110;19.838;2023-03-04T04:42:36;97592.13;;;1.55;64.10
70921;BME280;58572;48.110;19.838;2023-03-04T04:45:08;97590.13;;;1.85;63.28
70921;BME280;58572;48.110;19.838;2023-03-04T04:47:35;97594.81;;;1.78;63.10
70921;BME280;58572;48.110;19.838;2023-03-04T04:50:02;97528.50;;;1.85;61.33
70921;BME280;58572;48.110;19.838;2023-03-04T04:52:29;97585.00;;;1.96;61.99
70921;BME280;58572;48.110;19.838;2023-03-04T04:54:56;97585.09;;;2.01;61.75
70921;BME280;58572;48.110;19.838;2023-03-04T04:57:23;97522.94;;;1.52;61.82
70921;BME280;58572;48.110;19.838;2023-03-04T04:59:50;97582.09;;;2.09;61.54
70921;BME280;58572;48.110;19.838;2023-03-04T05:02:19;97578.00;;;1.95;62.35
70921;BME280;58572;48.110;19.838;2023-03-04T05:04:46;97584.16;;;2.07;61.21
70921;BME280;58572;48.110;19.838;2023-03-04T05:07:13;97580.56;;;2.01;61.41
70921;BME280;58572;48.110;19.838;2023-03-04T05:09:40;97585.72;;;1.79;61.93
70921;BME280;58572;48.110;19.838;2023-03-04T05:12:07;97586.63;;;1.85;62.11
70921;BME280;58572;48.110;19.838;2023-03-04T05:14:34;97596.59;;;0.36;66.76
70921;BME280;58572;48.110;19.838;2023-03-04T05:17:01;97586.38;;;0.75;66.44
70921;BME280;58572;48.110;19.838;2023-03-04T05:19:29;97545.53;;;1.68;61.44
70921;BME280;58572;48.110;19.838;2023-03-04T05:21:56;97595.84;;;1.66;61.96
70921;BME280;58572;48.110;19.838;2023-03-04T05:24:23;97595.25;;;1.87;61.70
70921;BME280;58572;48.110;19.838;2023-03-04T05:26:50;97597.13;;;1.63;62.16
70921;BME280;58572;48.110;19.838;2023-03-04T05:29:17;97589.66;;;0.77;64.18
70921;BME280;58572;48.110;19.838;2023-03-04T05:31:45;97588.16;;;1.46;62.92
70921;BME280;58572;48.110;19.838;2023-03-04T05:34:15;97340.56;;;-0.04;62.42
70921;BME280;58572;48.110;19.838;2023-03-04T05:36:43;97591.41;;;1.83;61.51
70921;BME280;58572;48.110;19.838;2023-03-04T05:39:11;97593.75;;;0.91;63.54
70921;BME280;58572;48.110;19.838;2023-03-04T05:41:38;97585.97;;;1.54;62.72
70921;BME280;58572;48.110;19.838;2023-03-04T05:44:05;97585.03;;;1.49;62.52
70921;BME280;58572;48.110;19.838;2023-03-04T05:46:32;97575.94;;;1.62;61.83
70921;BME280;58572;48.110;19.838;2023-03-04T05:48:59;97580.38;;;1.44;61.90
70921;BME280;58572;48.110;19.838;2023-03-04T05:51:26;97581.66;;;1.53;62.28
70921;BME280;58572;48.110;19.838;2023-03-04T05:53:54;97580.94;;;1.58;62.41
70921;BME280;58572;48.110;19.838;2023-03-04T05:56:21;97586.00;;;1.01;63.50
70921;BME280;58572;48.110;19.838;2023-03-04T05:58:48;97589.06;;;1.16;63.90
70921;BME280;58572;48.110;19.838;2023-03-04T06:01:16;97588.06;;;1.41;62.63
70921;BME280;58572;48.110;19.838;2023-03-04T06:03:43;97589.22;;;1.45;62.16
70921;BME280;58572;48.110;19.838;2023-03-04T06:06:12;97597.38;;;1.62;61.29
70921;BME280;58572;48.110;19.838;2023-03-04T06:08:40;97541.16;;;0.43;63.34
70921;BME280;58572;48.110;19.838;2023-03-04T06:11:08;97599.81;;;1.40;62.38
70921;BME280;58572;48.110;19.838;2023-03-04T06:13:35;97605.38;;;1.26;63.06
70921;BME280;58572;48.110;19.838;2023-03-04T06:16:03;97596.78;;;1.48;62.47
70921;BME280;58572;48.110;19.838;2023-03-04T06:18:30;97404.63;;;-0.15;63.63
70921;BME280;58572;48.110;19.838;2023-03-04T06:20:57;97593.84;;;1.14;63.58
70921;BME280;58572;48.110;19.838;2023-03-04T06:23:25;97611.97;;;0.71;65.28
70921;BME280;58572;48.110;19.838;2023-03-04T06:25:52;97601.44;;;1.52;62.77
70921;BME280;58572;48.110;19.838;2023-03-04T06:28:21;97611.56;;;1.50;62.42
70921;BME280;58572;48.110;19.838;2023-03-04T06:30:50;97616.13;;;1.50;62.99
70921;BME280;58572;48.110;19.838;2023-03-04T06:33:18;97611.56;;;1.27;63.44
70921;BME280;58572;48.110;19.838;2023-03-04T06:35:45;97614.34;;;1.20;63.56
70921;BME280;58572;48.110;19.838;2023-03-04T06:38:12;97608.31;;;1.60;62.49
70921;BME280;58572;48.110;19.838;2023-03-04T06:40:39;97617.75;;;1.74;62.01
70921;BME280;58572;48.110;19.838;2023-03-04T06:43:06;97573.72;;;1.47;62.39
70921;BME280;58572;48.110;19.838;2023-03-04T06:45:34;97606.00;;;1.52;62.44
70921;BME280;58572;48.110;19.838;2023-03-04T06:48:01;97593.50;;;1.11;63.65
70921;BME280;58572;48.110;19.838;2023-03-04T06:50:28;97609.09;;;1.25;63.49
70921;BME280;58572;48.110;19.838;2023-03-04T06:52:55;97540.50;;;1.01;62.50
70921;BME280;58572;48.110;19.838;2023-03-04T06:55:23;97617.63;;;1.69;62.04
70921;BME280;58572;48.110;19.838;2023-03-04T06:57:50;97492.63;;;0.70;61.53
70921;BME280;58572;48.110;19.838;2023-03-04T07:00:18;97606.56;;;0.89;64.85
70921;BME280;58572;48.110;19.838;2023-03-04T07:02:46;97507.66;;;0.94;62.16
70921;BME280;58572;48.110;19.838;2023-03-04T07:05:13;97549.84;;;1.69;60.97
70921;BME280;58572;48.110;19.838;2023-03-04T07:07:41;97610.16;;;1.36;62.88
70921;BME280;58572;48.110;19.838;2023-03-04T07:10:09;97579.16;;;1.05;62.40
70921;BME280;58572;48.110;19.838;2023-03-04T07:12:36;97608.56;;;1.58;62.18
70921;BME280;58572;48.110;19.838;2023-03-04T07:15:04;97612.16;;;1.52;62.65
70921;BME280;58572;48.110;19.838;2023-03-04T07:17:31;97605.50;;;1.90;61.28
70921;BME280;58572;48.110;19.838;2023-03-04T07:20:00;97607.38;;;2.13;60.46
70921;BME280;58572;48.110;19.838;2023-03-04T07:22:27;97569.88;;;1.66;60.94
70921;BME280;58572;48.110;19.838;2023-03-04T07:24:54;97613.09;;;1.81;61.51
70921;BME280;58572;48.110;19.838;2023-03-04T07:27:21;97454.84;;;0.66;62.41
70921;BME280;58572;48.110;19.838;2023-03-04T07:29:48;97601.53;;;2.16;60.65
70921;BME280;58572;48.110;19.838;2023-03-04T07:32:15;97604.13;;;2.51;59.47
70921;BME280;58572;48.110;19.838;2023-03-04T07:34:42;97597.69;;;2.12;60.49
70921;BME280;58572;48.110;19.838;2023-03-04T07:37:11;97592.34;;;2.12;60.88
70921;BME280;58572;48.110;19.838;2023-03-04T07:39:38;97596.19;;;1.22;61.64
70921;BME280;58572;48.110;19.838;2023-03-04T07:42:05;97607.88;;;2.38;59.94
70921;BME280;58572;48.110;19.838;2023-03-04T07:44:32;97587.53;;;2.26;60.34
70921;BME280;58572;48.110;19.838;2023-03-04T07:46:59;97411.22;;;1.12;60.34
70921;BME280;58572;48.110;19.838;2023-03-04T07:49:26;97596.41;;;1.91;60.97
70921;BME280;58572;48.110;19.838;2023-03-04T07:51:53;97586.28;;;2.45;60.17
70921;BME280;58572;48.110;19.838;2023-03-04T07:54:21;97567.97;;;1.90;60.50
70921;BME280;58572;48.110;19.838;2023-03-04T07:56:48;97577.34;;;2.68;59.76
70921;BME280;58572;48.110;19.838;2023-03-04T07:59:15;97583.28;;;2.70;59.42
70921;BME280;58572;48.110;19.838;2023-03-04T08:01:42;97574.81;;;3.23;58.13
70921;BME280;58572;48.110;19.838;2023-03-04T08:04:09;97579.81;;;2.86;58.97
70921;BME280;58572;48.110;19.838;2023-03-04T08:06:36;97578.28;;;2.62;59.79
70921;BME280;58572;48.110;19.838;2023-03-04T08:09:06;97572.88;;;3.18;58.99
70921;BME280;58572;48.110;19.838;2023-03-04T08:11:36;97578.13;;;2.97;59.22
70921;BME280;58572;48.110;19.838;2023-03-04T08:14:04;97585.56;;;2.78;58.40
70921;BME280;58572;48.110;19.838;2023-03-04T08:16:31;97565.28;;;3.49;56.96
70921;BME280;58572;48.110;19.838;2023-03-04T08:19:01;97569.66;;;3.05;59.16
70921;BME280;58572;48.110;19.838;2023-03-04T08:21:29;97501.47;;;3.06;58.29
70921;BME280;58572;48.110;19.838;2023-03-04T08:23:56;97562.53;;;3.44;58.00
70921;BME280;58572;48.110;19.838;2023-03-04T08:26:25;97555.34;;;3.66;57.49
70921;BME280;58572;48.110;19.838;2023-03-04T08:28:54;97545.63;;;3.65;57.28
70921;BME280;58572;48.110;19.838;2023-03-04T08:31:22;97551.13;;;4.58;56.31
70921;BME280;58572;48.110;19.838;2023-03-04T08:33:49;97538.66;;;4.78;55.78
70921;BME280;58572;48.110;19.838;2023-03-04T08:36:17;97535.53;;;4.87;54.58
70921;BME280;58572;48.110;19.838;2023-03-04T08:38:44;97541.38;;;4.78;54.23
70921;BME280;58572;48.110;19.838;2023-03-04T08:41:12;97527.50;;;6.08;52.45
70921;BME280;58572;48.110;19.838;2023-03-04T08:43:40;97523.72;;;7.73;50.83
70921;BME280;58572;48.110;19.838;2023-03-04T08:46:09;97529.66;;;6.06;52.10
70921;BME280;58572;48.110;19.838;2023-03-04T08:48:36;97527.72;;;6.59;48.83
70921;BME280;58572;48.110;19.838;2023-03-04T08:51:07;97519.91;;;8.59;46.01
70921;BME280;58572;48.110;19.838;2023-03-04T08:53:35;97518.31;;;6.87;49.31
70921;BME280;58572;48.110;19.838;2023-03-04T08:56:02;97515.25;;;8.00;47.06
70921;BME280;58572;48.110;19.838;2023-03-04T08:58:29;97517.25;;;9.32;46.01
70921;BME280;58572;48.110;19.838;2023-03-04T09:00:58;97501.41;;;9.10;43.58
70921;BME280;58572;48.110;19.838;2023-03-04T09:03:27;97510.72;;;8.99;44.37
70921;BME280;58572;48.110;19.838;2023-03-04T09:05:54;97502.38;;;8.90;43.97
70921;BME280;58572;48.110;19.838;2023-03-04T09:08:21;97499.94;;;10.76;42.32
70921;BME280;58572;48.110;19.838;2023-03-04T09:10:51;97476.63;;;9.56;40.62
70921;BME280;58572;48.110;19.838;2023-03-04T09:13:19;97507.44;;;8.63;45.32
70921;BME280;58572;48.110;19.838;2023-03-04T09:15:48;97494.56;;;9.81;40.44
70921;BME280;58572;48.110;19.838;2023-03-04T09:18:16;97476.13;;;10.68;41.35
70921;BME280;58572;48.110;19.838;2023-03-04T09:20:45;97484.19;;;11.11;41.94
70921;BME280;58572;48.110;19.838;2023-03-04T09:23:13;97493.66;;;8.99;44.27
70921;BME280;58572;48.110;19.838;2023-03-04T09:25:41;97479.25;;;11.13;40.72
70921;BME280;58572;48.110;19.838;2023-03-04T09:28:10;97378.47;;;9.49;41.67
70921;BME280;58572;48.110;19.838;2023-03-04T09:30:37;97470.94;;;11.56;39.27
70921;BME280;58572;48.110;19.838;2023-03-04T09:33:05;97486.31;;;9.33;45.27
70921;BME280;58572;48.110;19.838;2023-03-04T09:35:32;97465.13;;;11.43;42.60
70921;BME280;58572;48.110;19.838;2023-03-04T09:38:01;97459.13;;;11.60;39.26
70921;BME280;58572;48.110;19.838;2023-03-04T09:40:30;97464.44;;;11.84;39.15
70921;BME280;58572;48.110;19.838;2023-03-04T09:42:59;97468.63;;;11.30;40.87
70921;BME280;58572;48.110;19.838;2023-03-04T09:45:34;97476.44;;;9.47;45.28
70921;BME280;58572;48.110;19.838;2023-03-04T09:48:05;97463.81;;;10.09;42.13
70921;BME280;58572;48.110;19.838;2023-03-04T09:50:33;97457.56;;;12.28;39.12
70921;BME280;58572;48.110;19.838;2023-03-04T09:53:18;97462.56;;;9.78;43.38
70921;BME280;58572;48.110;19.838;2023-03-04T09:55:49;97451.66;;;10.87;42.26
70921;BME280;58572;48.110;19.838;2023-03-04T09:58:27;97451.03;;;11.09;38.70
70921;BME280;58572;48.110;19.838;2023-03-04T10:01:02;97440.63;;;10.60;42.34
70921;BME280;58572;48.110;19.838;2023-03-04T10:03:40;97453.56;;;10.49;42.74
70921;BME280;58572;48.110;19.838;2023-03-04T10:06:10;97441.53;;;11.39;40.61
70921;BME280;58572;48.110;19.838;2023-03-04T10:08:44;97432.03;;;12.10;38.37
70921;BME280;58572;48.110;19.838;2023-03-04T10:11:17;97439.56;;;11.44;41.68
70921;BME280;58572;48.110;19.838;2023-03-04T10:13:55;97433.25;;;11.30;40.15
70921;BME280;58572;48.110;19.838;2023-03-04T10:16:26;97429.38;;;13.49;36.53
70921;BME280;58572;48.110;19.838;2023-03-04T10:18:56;97432.41;;;12.81;38.02
70921;BME280;58572;48.110;19.838;2023-03-04T10:21:29;97444.84;;;12.51;38.54
70921;BME280;58572;48.110;19.838;2023-03-04T10:24:00;97421.25;;;12.05;39.82
70921;BME280;58572;48.110;19.838;2023-03-04T10:26:31;97426.28;;;12.75;33.64
70921;BME280;58572;48.110;19.838;2023-03-04T10:29:01;97428.25;;;12.61;38.86
70921;BME280;58572;48.110;19.838;2023-03-04T10:31:34;97423.63;;;12.34;39.17
70921;BME280;58572;48.110;19.838;2023-03-04T10:34:11;97405.63;;;15.15;36.60
70921;BME280;58572;48.110;19.838;2023-03-04T10:36:48;97402.44;;;10.51;36.58
70921;BME280;58572;48.110;19.838;2023-03-04T10:39:23;97414.38;;;12.93;36.87
70921;BME280;58572;48.110;19.838;2023-03-04T10:41:57;97402.41;;;14.44;34.76
70921;BME280;58572;48.110;19.838;2023-03-04T10:44:32;97411.22;;;13.22;38.61
70921;BME280;58572;48.110;19.838;2023-03-04T10:47:09;97421.25;;;12.91;37.88
70921;BME280;58572;48.110;19.838;2023-03-04T10:49:49;97414.66;;;11.65;39.48
70921;BME280;58572;48.110;19.838;2023-03-04T10:52:21;97411.34;;;13.17;36.52
70921;BME280;58572;48.110;19.838;2023-03-04T10:54:53;97367.94;;;15.12;35.35
70921;BME280;58572;48.110;19.838;2023-03-04T10:57:24;97278.94;;;15.36;33.49
70921;BME280;58572;48.110;19.838;2023-03-04T10:59:55;97394.34;;;15.25;32.34
70921;BME280;58572;48.110;19.838;2023-03-04T11:02:24;97376.78;;;17.36;31.95
70921;BME280;58572;48.110;19.838;2023-03-04T11:04:55;97391.66;;;15.72;33.22
70921;BME280;58572;48.110;19.838;2023-03-04T11:07:24;97320.66;;;14.34;32.20
70921;BME280;58572;48.110;19.838;2023-03-04T11:09:53;97337.56;;;14.53;33.91
70921;BME280;58572;48.110;19.838;2023-03-04T11:12:31;97388.41;;;13.80;35.54
70921;BME280;58572;48.110;19.838;2023-03-04T11:14:58;97379.16;;;14.16;36.40
70921;BME280;58572;48.110;19.838;2023-03-04T11:17:27;97395.81;;;14.45;36.80
70921;BME280;58572;48.110;19.838;2023-03-04T11:19:57;97396.63;;;11.69;36.38
70921;BME280;58572;48.110;19.838;2023-03-04T11:22:28;97383.31;;;12.08;37.09
70921;BME280;58572;48.110;19.838;2023-03-04T11:25:02;97377.59;;;14.32;35.91
70921;BME280;58572;48.110;19.838;2023-03-04T11:27:38;97369.59;;;14.79;36.02
70921;BME280;58572;48.110;19.838;2023-03-04T11:30:28;97364.63;;;14.63;34.35
70921;BME280;58572;48.110;19.838;2023-03-04T11:33:09;97359.16;;;14.63;33.74
70921;BME280;58572;48.110;19.838;2023-03-04T11:35:43;97360.41;;;13.66;33.24
70921;BME280;58572;48.110;19.838;2023-03-04T11:38:16;97355.19;;;14.13;35.03
70921;BME280;58572;48.110;19.838;2023-03-04T11:40:49;97347.56;;;13.75;34.58
70921;BME280;58572;48.110;19.838;2023-03-04T11:43:22;97350.88;;;14.29;33.49
70921;BME280;58572;48.110;19.838;2023-03-04T11:48:52;97316.63;;;15.39;33.46
70921;BME280;58572;48.110;19.838;2023-03-04T11:51:31;97313.78;;;15.26;33.83
70921;BME280;58572;48.110;19.838;2023-03-04T11:54:15;97318.78;;;14.60;34.11
70921;BME280;58572;48.110;19.838;2023-03-04T11:56:46;97308.41;;;14.92;34.11
70921;BME280;58572;48.110;19.838;2023-03-04T11:59:42;97304.16;;;15.20;33.97
70921;BME280;58572;48.110;19.838;2023-03-04T12:02:16;97304.28;;;14.68;32.97
70921;BME280;58572;48.110;19.838;2023-03-04T12:05:18;97298.22;;;13.71;33.37
70921;BME280;58572;48.110;19.838;2023-03-04T12:10:38;97271.78;;;15.52;32.39
70921;BME280;58572;48.110;19.838;2023-03-04T12:13:40;97267.78;;;17.65;32.90
70921;BME280;58572;48.110;19.838;2023-03-04T12:16:18;97251.56;;;16.36;30.25
70921;BME280;58572;48.110;19.838;2023-03-04T12:18:58;97265.16;;;15.91;30.31
70921;BME280;58572;48.110;19.838;2023-03-04T12:21:43;97268.53;;;14.22;32.63
70921;BME280;58572;48.110;19.838;2023-03-04T12:24:36;97277.44;;;12.83;32.72
70921;BME280;58572;48.110;19.838;2023-03-04T12:27:18;97258.66;;;15.37;34.37
70921;BME280;58572;48.110;19.838;2023-03-04T12:29:55;97247.97;;;16.23;33.24
70921;BME280;58572;48.110;19.838;2023-03-04T12:32:29;97249.63;;;16.37;31.46
70921;BME280;58572;48.110;19.838;2023-03-04T12:35:13;97242.91;;;17.00;31.95
70921;BME280;58572;48.110;19.838;2023-03-04T12:37:52;97236.75;;;16.16;32.89
70921;BME280;58572;48.110;19.838;2023-03-04T12:40:34;97234.53;;;15.59;33.26
70921;BME280;58572;48.110;19.838;2023-03-04T12:43:15;97233.13;;;15.83;33.92
70921;BME280;58572;48.110;19.838;2023-03-04T12:45:56;97228.72;;;15.31;31.52
70921;BME280;58572;48.110;19.838;2023-03-04T12:48:29;97220.03;;;15.88;32.76
70921;BME280;58572;48.110;19.838;2023-03-04T12:51:09;97214.59;;;16.75;31.92
70921;BME280;58572;48.110;19.838;2023-03-04T12:53:44;97218.16;;;15.80;30.52
70921;BME280;58572;48.110;19.838;2023-03-04T12:56:22;97159.97;;;14.95;33.90
70921;BME280;58572;48.110;19.838;2023-03-04T12:58:51;97209.56;;;16.77;31.99
70921;BME280;58572;48.110;19.838;2023-03-04T13:01:23;97205.09;;;16.19;29.77
70921;BME280;58572;48.110;19.838;2023-03-04T13:03:53;97213.13;;;15.53;31.66
70921;BME280;58572;48.110;19.838;2023-03-04T13:06:38;97218.63;;;14.77;33.00
70921;BME280;58572;48.110;19.838;2023-03-04T13:09:17;97161.41;;;15.81;32.14
70921;BME280;58572;48.110;19.838;2023-03-04T13:11:53;97212.63;;;14.92;31.23
70921;BME280;58572;48.110;19.838;2023-03-04T13:14:25;97224.66;;;12.87;35.63
70921;BME280;58572;48.110;19.838;2023-03-04T13:16:55;97202.66;;;15.25;33.00